Time;durP1;ratioP1;P1;durP2;ratioP2;P2;SDS_P1;SDS_P2;PMS_P1;PMS_P2;Temp;Humidity;BMP_temperature;BMP_pressure;BME280_temperature;BME280_humidity;BME280_pressure;Samples;Min_cycle;Max_cycle;Signal;HPM_P1;HPM_P2
2021/06/18 00:02:14;;;;;;;;;;;27.30;63.90;;;;;;4360568;32;28523;-82
2021/06/18 00:04:42;;;;;;;;;;;27.30;64.00;;;;;;4372686;32;44449;-82
2021/06/18 00:07:09;;;;;;;;;;;27.30;64.10;;;;;;4361494;32;35878;-83
2021/06/18 00:09:37;;;;;;;;;;;27.30;64.10;;;;;;4348517;32;21949;-83
2021/06/18 00:12:05;;;;;;;;;;;27.30;64.20;;;;;;4360712;32;20016;-82
2021/06/18 00:14:32;;;;;;;;;;;27.30;64.30;;;;;;4361053;32;38318;-82
2021/06/18 00:16:59;;;;;;;;;;;27.30;64.30;;;;;;4347888;32;45846;-82
2021/06/18 00:19:29;;;;;;;;;;;27.20;64.30;;;;;;4361013;32;20045;-83
2021/06/18 00:22:00;;;;;;;;;;;27.20;64.30;;;;;;4360705;32;20021;-82
2021/06/18 00:24:33;;;;;;;;;;;27.20;64.40;;;;;;4347938;32;45106;-83
2021/06/18 00:27:00;;;;;;;;;;;27.20;64.50;;;;;;4359953;32;44448;-83
2021/06/18 00:29:28;;;;;;;;;;;27.20;64.50;;;;;;4359972;32;43750;-83
2021/06/18 00:31:55;;;;;;;;;;;27.20;64.60;;;;;;4359907;32;45897;-83
2021/06/18 00:34:22;;;;;;;;;;;27.10;64.60;;;;;;4346837;33;44682;-83
2021/06/18 00:36:49;;;;;;;;;;;27.10;64.70;;;;;;4359556;32;40127;-83
2021/06/18 00:39:19;;;;;;;;;;;27.10;64.80;;;;;;4347208;32;45090;-84
2021/06/18 00:41:48;;;;;;;;;;;27.10;64.80;;;;;;4348784;32;20394;-84
2021/06/18 00:44:16;;;;;;;;;;;27.10;64.90;;;;;;4347314;32;37901;-83
2021/06/18 00:46:43;;;;;;;;;;;27.10;64.90;;;;;;4360765;32;20017;-83
2021/06/18 00:49:13;;;;;;;;;;;27.10;65.00;;;;;;4359741;32;37753;-83
2021/06/18 00:51:41;;;;;;;;;;;27.10;65.10;;;;;;4359384;32;45632;-83
2021/06/18 00:54:10;;;;;;;;;;;27.10;65.10;;;;;;4361053;32;29729;-83
2021/06/18 00:56:41;;;;;;;;;;;27.10;65.20;;;;;;4360813;32;38743;-84
2021/06/18 00:59:08;;;;;;;;;;;27.10;65.30;;;;;;4359542;32;43273;-83
2021/06/18 01:01:35;;;;;;;;;;;27.10;65.30;;;;;;4346678;32;44569;-85
2021/06/18 01:04:02;;;;;;;;;;;27.10;65.40;;;;;;4360027;32;32912;-84
2021/06/18 01:06:34;;;;;;;;;;;27.00;65.30;;;;;;4361310;32;20017;-84
2021/06/18 01:09:06;;;;;;;;;;;27.00;65.40;;;;;;4360078;32;25752;-84
2021/06/18 01:11:36;;;;;;;;;;;27.00;65.50;;;;;;4360731;32;20466;-84
2021/06/18 01:14:24;;;;;;;;;;;27.00;65.60;;;;;;4360705;32;20062;-84
2021/06/18 01:16:53;;;;;;;;;;;27.00;65.70;;;;;;4360487;32;20028;-83
2021/06/18 01:19:39;;;;;;;;;;;27.00;65.80;;;;;;4373043;32;20447;-84
2021/06/18 01:22:09;;;;;;;;;;;27.00;65.80;;;;;;4385168;32;20043;-84
2021/06/18 01:24:48;;;;;;;;;;;27.00;65.90;;;;;;4359948;32;20036;-84
2021/06/18 01:27:15;;;;;;;;;;;26.90;65.80;;;;;;4359872;32;20109;-83
2021/06/18 01:29:55;;;;;;;;;;;26.90;65.80;;;;;;4372634;32;21169;-83
2021/06/18 01:32:28;;;;;;;;;;;26.90;65.90;;;;;;4360127;32;20016;-83
2021/06/18 01:34:59;;;;;;;;;;;26.90;65.90;;;;;;4361206;32;20414;-84
2021/06/18 01:37:30;;;;;;;;;;;26.90;66.10;;;;;;4361821;32;20397;-84
2021/06/18 01:40:02;;;;;;;;;;;26.90;66.10;;;;;;4347771;32;19993;-85
2021/06/18 01:42:34;;;;;;;;;;;26.90;66.10;;;;;;4347330;32;27034;-84
2021/06/18 01:45:05;;;;;;;;;;;26.90;66.10;;;;;;4359954;32;20043;-85
2021/06/18 01:47:32;;;;;;;;;;;26.90;66.20;;;;;;4360137;32;20019;-84
2021/06/18 01:50:01;;;;;;;;;;;26.80;66.20;;;;;;4359526;32;20016;-85
2021/06/18 01:52:31;;;;;;;;;;;26.80;66.30;;;;;;4361261;33;20009;-85
2021/06/18 01:55:04;;;;;;;;;;;26.80;66.30;;;;;;4359882;33;20064;-85
2021/06/18 01:57:34;;;;;;;;;;;26.80;66.40;;;;;;4347405;33;24125;-82
2021/06/18 02:00:07;;;;;;;;;;;26.80;66.50;;;;;;4347643;33;20006;-83
2021/06/18 02:02:35;;;;;;;;;;;26.70;66.60;;;;;;4359512;33;20009;-84
2021/06/18 02:05:04;;;;;;;;;;;26.70;66.70;;;;;;4361166;33;20019;-84
2021/06/18 02:07:35;;;;;;;;;;;26.70;66.70;;;;;;4371727;32;20035;-85
2021/06/18 02:10:06;;;;;;;;;;;26.70;66.80;;;;;;4360027;33;20017;-85
2021/06/18 02:12:33;;;;;;;;;;;26.70;66.80;;;;;;4347582;33;20035;-83
2021/06/18 02:15:01;;;;;;;;;;;26.70;66.80;;;;;;4360948;32;20009;-82
2021/06/18 02:17:29;;;;;;;;;;;26.60;66.90;;;;;;4384817;32;20406;-83
2021/06/18 02:20:00;;;;;;;;;;;26.50;67.20;;;;;;4360949;32;20365;-84
2021/06/18 02:22:30;;;;;;;;;;;26.50;67.30;;;;;;4361388;32;20005;-83
2021/06/18 02:25:01;;;;;;;;;;;26.50;67.40;;;;;;4361224;32;20060;-84
2021/06/18 02:27:32;;;;;;;;;;;26.40;67.40;;;;;;4359540;33;22016;-84
2021/06/18 02:30:02;;;;;;;;;;;26.40;67.40;;;;;;4360774;33;20495;-83
2021/06/18 02:32:30;;;;;;;;;;;26.40;67.50;;;;;;4359409;33;20082;-83
2021/06/18 02:35:03;;;;;;;;;;;26.40;67.60;;;;;;4361185;32;20023;-83
2021/06/18 02:37:34;;;;;;;;;;;26.40;67.60;;;;;;4384477;32;20031;-82
2021/06/18 02:40:07;;;;;;;;;;;26.40;67.60;;;;;;4360139;33;20015;-82
2021/06/18 02:42:36;;;;;;;;;;;26.40;67.60;;;;;;4347858;33;19997;-81
2021/06/18 02:45:09;;;;;;;;;;;26.40;67.70;;;;;;4359345;33;20016;-82
2021/06/18 02:47:39;;;;;;;;;;;26.40;67.90;;;;;;4347132;33;20418;-81
2021/06/18 02:50:09;;;;;;;;;;;26.40;68.00;;;;;;4360996;33;20008;-82
2021/06/18 02:52:54;;;;;;;;;;;26.30;68.00;;;;;;4361209;32;20054;-82
2021/06/18 02:55:24;;;;;;;;;;;26.30;68.20;;;;;;4359652;33;19997;-82
2021/06/18 02:57:55;;;;;;;;;;;26.30;68.30;;;;;;4359236;32;44345;-82
2021/06/18 03:00:29;;;;;;;;;;;26.30;68.40;;;;;;4362592;32;35408;-82
2021/06/18 03:02:58;;;;;;;;;;;26.30;68.50;;;;;;4362249;32;37829;-82
2021/06/18 03:05:26;;;;;;;;;;;26.30;68.60;;;;;;4362316;32;20005;-82
2021/06/18 03:07:56;;;;;;;;;;;26.30;68.60;;;;;;4361461;32;32217;-82
2021/06/18 03:10:25;;;;;;;;;;;26.30;68.80;;;;;;4361862;32;23337;-81
2021/06/18 03:12:58;;;;;;;;;;;26.30;68.90;;;;;;4362400;32;39679;-81
2021/06/18 03:15:26;;;;;;;;;;;26.30;68.90;;;;;;4348754;32;38566;-81
2021/06/18 03:17:55;;;;;;;;;;;26.30;69.10;;;;;;4348794;32;39210;-81
2021/06/18 03:20:25;;;;;;;;;;;26.20;69.10;;;;;;4363136;32;20016;-82
2021/06/18 03:22:59;;;;;;;;;;;26.20;69.20;;;;;;4361893;32;20008;-82
2021/06/18 03:25:34;;;;;;;;;;;26.20;69.30;;;;;;4363470;32;20001;-81
2021/06/18 03:28:05;;;;;;;;;;;26.30;69.40;;;;;;4360781;32;44925;-81
2021/06/18 03:30:36;;;;;;;;;;;26.20;69.40;;;;;;4362184;32;42822;-82
2021/06/18 03:33:03;;;;;;;;;;;26.30;69.60;;;;;;4385950;32;42561;-82
2021/06/18 03:35:40;;;;;;;;;;;26.20;69.60;;;;;;4362098;32;20004;-81
2021/06/18 03:38:10;;;;;;;;;;;26.30;69.70;;;;;;4349354;32;20005;-82
2021/06/18 03:40:42;;;;;;;;;;;26.30;69.70;;;;;;4374342;32;19989;-82
2021/06/18 03:43:09;;;;;;;;;;;26.30;69.80;;;;;;4349798;32;20521;-82
2021/06/18 03:45:45;;;;;;;;;;;26.20;69.70;;;;;;4361213;32;24074;-82
2021/06/18 03:48:16;;;;;;;;;;;26.20;69.80;;;;;;4360850;32;24899;-81
2021/06/18 03:50:47;;;;;;;;;;;26.20;70.00;;;;;;4347863;32;47251;-82
2021/06/18 03:53:16;;;;;;;;;;;26.20;70.10;;;;;;4361546;32;20005;-82
2021/06/18 03:55:48;;;;;;;;;;;26.20;70.10;;;;;;4360690;32;30937;-82
2021/06/18 03:58:22;;;;;;;;;;;26.20;70.20;;;;;;4362035;32;20004;-82
2021/06/18 04:00:53;;;;;;;;;;;26.20;70.20;;;;;;4361715;32;39724;-82
2021/06/18 04:03:21;;;;;;;;;;;26.20;70.20;;;;;;4373559;32;20030;-82
2021/06/18 04:05:56;;;;;;;;;;;26.20;70.30;;;;;;4361165;32;20426;-82
2021/06/18 04:08:23;;;;;;;;;;;26.20;70.40;;;;;;4348306;32;35965;-82
2021/06/18 04:10:54;;;;;;;;;;;26.20;70.40;;;;;;4360764;32;20015;-82
2021/06/18 04:13:25;;;;;;;;;;;26.20;70.50;;;;;;4360511;32;34557;-82
2021/06/18 04:15:52;;;;;;;;;;;26.20;70.60;;;;;;4360563;32;36100;-82
2021/06/18 04:18:23;;;;;;;;;;;26.20;70.60;;;;;;4360853;32;20064;-82
2021/06/18 04:20:54;;;;;;;;;;;26.20;70.60;;;;;;4361464;32;41200;-82
2021/06/18 04:23:28;;;;;;;;;;;26.20;70.70;;;;;;4360311;32;44664;-82
2021/06/18 04:25:59;;;;;;;;;;;26.20;70.80;;;;;;4359708;32;44540;-82
2021/06/18 04:28:26;;;;;;;;;;;26.20;70.80;;;;;;4347773;32;45237;-83
2021/06/18 04:30:57;;;;;;;;;;;26.20;70.90;;;;;;4361041;32;20008;-82
2021/06/18 04:33:24;;;;;;;;;;;26.20;71.00;;;;;;4359754;32;42502;-82
2021/06/18 04:35:52;;;;;;;;;;;26.10;70.90;;;;;;4372032;32;39845;-82
2021/06/18 04:38:19;;;;;;;;;;;26.20;71.00;;;;;;4361280;32;20327;-82
2021/06/18 04:40:46;;;;;;;;;;;26.20;71.10;;;;;;4361024;32;20008;-82
2021/06/18 04:43:16;;;;;;;;;;;26.10;71.00;;;;;;4347189;32;43590;-82
2021/06/18 04:45:46;;;;;;;;;;;26.20;71.20;;;;;;4361891;32;19996;-82
2021/06/18 04:48:14;;;;;;;;;;;26.10;71.10;;;;;;4360432;32;27174;-82
2021/06/18 04:50:44;;;;;;;;;;;26.10;71.20;;;;;;4359499;32;37633;-82
2021/06/18 04:53:14;;;;;;;;;;;26.10;71.30;;;;;;4360916;32;20013;-82
2021/06/18 04:55:42;;;;;;;;;;;26.10;71.30;;;;;;4359879;32;39532;-82
2021/06/18 04:58:13;;;;;;;;;;;26.10;71.40;;;;;;4359503;32;38234;-81
2021/06/18 05:00:41;;;;;;;;;;;26.10;71.50;;;;;;4360396;32;27294;-82
2021/06/18 05:03:13;;;;;;;;;;;26.10;71.50;;;;;;4359792;32;20027;-82
2021/06/18 05:05:43;;;;;;;;;;;26.10;71.50;;;;;;4360205;32;26851;-81
2021/06/18 05:08:13;;;;;;;;;;;26.10;71.60;;;;;;4360127;32;27219;-81
2021/06/18 05:10:46;;;;;;;;;;;26.10;71.70;;;;;;4347631;32;44116;-81
2021/06/18 05:13:21;;;;;;;;;;;26.10;71.70;;;;;;4361841;32;20005;-82
2021/06/18 05:15:51;;;;;;;;;;;26.10;72.00;;;;;;4361413;32;20017;-81
2021/06/18 05:18:26;;;;;;;;;;;26.00;72.00;;;;;;4359711;32;39546;-82
2021/06/18 05:20:53;;;;;;;;;;;26.00;72.10;;;;;;4360486;32;20020;-81
2021/06/18 05:23:26;;;;;;;;;;;26.00;72.10;;;;;;4360700;32;20015;-81
2021/06/18 05:25:56;;;;;;;;;;;26.00;72.20;;;;;;4360697;32;20053;-82
2021/06/18 05:28:25;;;;;;;;;;;26.00;72.20;;;;;;4360233;32;20017;-81
2021/06/18 05:30:58;;;;;;;;;;;26.00;72.30;;;;;;4360713;32;20013;-82
2021/06/18 05:33:28;;;;;;;;;;;26.00;72.40;;;;;;4359361;32;33006;-82
2021/06/18 05:36:01;;;;;;;;;;;26.00;72.40;;;;;;4360152;32;19993;-82
2021/06/18 05:38:28;;;;;;;;;;;26.00;72.50;;;;;;4359472;32;33528;-82
2021/06/18 05:40:58;;;;;;;;;;;26.00;72.50;;;;;;4347751;32;20007;-82
2021/06/18 05:43:31;;;;;;;;;;;26.00;72.60;;;;;;4359987;32;20436;-82
2021/06/18 05:46:01;;;;;;;;;;;26.00;72.80;;;;;;4360534;32;37685;-81
2021/06/18 05:48:34;;;;;;;;;;;26.00;72.80;;;;;;4371264;32;43559;-81
2021/06/18 05:51:01;;;;;;;;;;;26.00;72.90;;;;;;4359206;32;39647;-81
2021/06/18 05:53:34;;;;;;;;;;;26.00;73.00;;;;;;4347742;33;19997;-82
2021/06/18 05:56:04;;;;;;;;;;;26.00;73.00;;;;;;4359798;33;22129;-81
2021/06/18 05:58:37;;;;;;;;;;;26.00;73.20;;;;;;4372450;32;20036;-81
2021/06/18 06:01:10;;;;;;;;;;;26.00;73.40;;;;;;4359819;33;21775;-82
2021/06/18 06:04:02;;;;;;;;;;;25.90;73.60;;;;;;4350146;33;20045;-81
2021/06/18 06:06:35;;;;;;;;;;;25.90;73.70;;;;;;4360054;33;20008;-81
2021/06/18 06:09:16;;;;;;;;;;;25.90;73.80;;;;;;4348436;33;19996;-81
2021/06/18 06:11:52;;;;;;;;;;;25.90;73.90;;;;;;4347390;33;20043;-81
2021/06/18 06:14:20;;;;;;;;;;;25.90;74.10;;;;;;4358902;33;44840;-81
2021/06/18 06:16:48;;;;;;;;;;;25.90;74.20;;;;;;4347699;33;19993;-81
2021/06/18 06:19:15;;;;;;;;;;;25.90;74.20;;;;;;4358488;33;43040;-82
2021/06/18 06:21:48;;;;;;;;;;;25.90;74.30;;;;;;4360043;32;33053;-81
2021/06/18 06:24:20;;;;;;;;;;;25.90;74.50;;;;;;4372521;32;20001;-81
2021/06/18 06:26:53;;;;;;;;;;;25.90;74.50;;;;;;4372394;32;19997;-82
2021/06/18 06:29:26;;;;;;;;;;;25.90;74.70;;;;;;4358959;33;37457;-82
2021/06/18 06:31:55;;;;;;;;;;;25.90;74.70;;;;;;4347130;32;26079;-81
2021/06/18 06:34:31;;;;;;;;;;;25.90;74.70;;;;;;4349999;32;19996;-82
2021/06/18 06:36:59;;;;;;;;;;;25.90;74.80;;;;;;4364111;32;20022;-82
2021/06/18 06:39:32;;;;;;;;;;;25.90;74.80;;;;;;4350122;32;19997;-82
2021/06/18 06:42:01;;;;;;;;;;;25.90;74.80;;;;;;4361469;32;32414;-81
2021/06/18 06:44:32;;;;;;;;;;;25.90;74.90;;;;;;4362036;32;40674;-81
2021/06/18 06:47:04;;;;;;;;;;;25.90;74.90;;;;;;4375129;32;19997;-81
2021/06/18 06:49:40;;;;;;;;;;;25.90;75.10;;;;;;4362243;32;20738;-81
2021/06/18 06:52:13;;;;;;;;;;;25.90;75.20;;;;;;4361743;32;27156;-81
2021/06/18 06:54:47;;;;;;;;;;;25.90;75.20;;;;;;4350375;32;20005;-82
2021/06/18 06:57:20;;;;;;;;;;;25.80;75.20;;;;;;4375258;32;20001;-81
2021/06/18 06:59:51;;;;;;;;;;;25.90;75.50;;;;;;4362388;32;20110;-81
2021/06/18 07:02:21;;;;;;;;;;;25.80;75.40;;;;;;4374556;32;20009;-82
2021/06/18 07:04:58;;;;;;;;;;;25.90;75.50;;;;;;4362397;32;20010;-81
2021/06/18 07:07:31;;;;;;;;;;;25.90;75.50;;;;;;4361260;32;40625;-81
2021/06/18 07:10:03;;;;;;;;;;;25.80;75.50;;;;;;4349210;32;34353;-82
2021/06/18 07:12:36;;;;;;;;;;;25.90;75.60;;;;;;4362698;32;20017;-82
2021/06/18 07:15:09;;;;;;;;;;;25.90;75.60;;;;;;4350187;32;20060;-82
2021/06/18 07:17:42;;;;;;;;;;;25.90;75.60;;;;;;4361572;32;31928;-82
2021/06/18 07:20:09;;;;;;;;;;;25.90;75.60;;;;;;4362456;32;19992;-82
2021/06/18 07:22:46;;;;;;;;;;;25.90;75.60;;;;;;4361977;32;20035;-81
2021/06/18 07:25:13;;;;;;;;;;;25.90;75.70;;;;;;4349936;32;20049;-81
2021/06/18 07:27:47;;;;;;;;;;;25.90;75.70;;;;;;4362921;32;20004;-81
2021/06/18 07:30:18;;;;;;;;;;;25.90;75.70;;;;;;4349710;32;20017;-81
2021/06/18 07:32:51;;;;;;;;;;;25.90;75.80;;;;;;4362046;32;20008;-81
2021/06/18 07:35:18;;;;;;;;;;;25.90;75.80;;;;;;4361377;32;31865;-81
2021/06/18 07:37:48;;;;;;;;;;;25.90;75.70;;;;;;4350055;32;20056;-82
2021/06/18 07:40:21;;;;;;;;;;;25.90;75.70;;;;;;4361673;32;20585;-81
2021/06/18 07:42:51;;;;;;;;;;;26.00;75.80;;;;;;4360918;32;37821;-81
2021/06/18 07:45:21;;;;;;;;;;;26.00;75.90;;;;;;4373213;32;31984;-81
2021/06/18 07:47:52;;;;;;;;;;;26.00;76.00;;;;;;4361829;32;44794;-81
2021/06/18 07:50:20;;;;;;;;;;;26.00;76.10;;;;;;4349086;32;20005;-82
2021/06/18 07:52:50;;;;;;;;;;;26.00;76.00;;;;;;4361765;32;19993;-82
2021/06/18 07:55:21;;;;;;;;;;;26.00;76.10;;;;;;4361650;32;43683;-82
2021/06/18 07:57:53;;;;;;;;;;;26.00;76.10;;;;;;4362507;32;22907;-82
2021/06/18 08:00:25;;;;;;;;;;;26.10;76.20;;;;;;4360628;32;27085;-81
2021/06/18 08:02:59;;;;;;;;;;;26.10;76.20;;;;;;4361183;32;20005;-82
2021/06/18 08:05:26;;;;;;;;;;;26.10;76.30;;;;;;4348181;32;32722;-81
2021/06/18 08:07:59;;;;;;;;;;;26.10;76.30;;;;;;4360129;32;45610;-81
2021/06/18 08:10:52;;;;;;;;;;;26.10;77.10;;;;;;4386583;32;20057;-81
2021/06/18 08:13:23;;;;;;;;;;;26.10;76.30;;;;;;4360123;32;45179;-81
2021/06/18 08:15:55;;;;;;;;;;;26.10;76.30;;;;;;4360052;32;39544;-83
2021/06/18 08:18:22;;;;;;;;;;;26.10;76.20;;;;;;4361674;32;36992;-81
2021/06/18 08:20:50;;;;;;;;;;;26.20;76.30;;;;;;4360612;32;34809;-83
2021/06/18 08:23:17;;;;;;;;;;;26.10;76.20;;;;;;4360399;32;20051;-81
2021/06/18 08:25:45;;;;;;;;;;;26.20;76.30;;;;;;4360370;32;35001;-82
2021/06/18 08:28:14;;;;;;;;;;;26.20;76.30;;;;;;4360836;32;20075;-82
2021/06/18 08:30:41;;;;;;;;;;;26.20;76.30;;;;;;4347503;32;39130;-81
2021/06/18 08:33:09;;;;;;;;;;;26.20;76.20;;;;;;4359717;32;42202;-81
2021/06/18 08:35:39;;;;;;;;;;;26.20;76.20;;;;;;4385025;32;39340;-81
2021/06/18 08:38:06;;;;;;;;;;;26.20;76.20;;;;;;4359855;32;43679;-81
2021/06/18 08:40:37;;;;;;;;;;;26.30;76.30;;;;;;4360152;32;32196;-81
2021/06/18 08:43:06;;;;;;;;;;;26.20;76.20;;;;;;4371749;32;45663;-81
2021/06/18 08:45:34;;;;;;;;;;;26.30;76.30;;;;;;4359973;32;41135;-81
2021/06/18 08:48:01;;;;;;;;;;;26.20;76.20;;;;;;4359506;32;44753;-81
2021/06/18 08:50:28;;;;;;;;;;;26.30;76.30;;;;;;4371980;32;47146;-81
2021/06/18 08:52:59;;;;;;;;;;;26.30;76.20;;;;;;4360063;32;40609;-81
2021/06/18 08:55:31;;;;;;;;;;;26.30;76.20;;;;;;4359897;32;26272;-81
2021/06/18 08:58:00;;;;;;;;;;;26.30;76.10;;;;;;4359924;32;42709;-81
2021/06/18 09:00:31;;;;;;;;;;;26.30;76.20;;;;;;4371732;32;46746;-81
2021/06/18 09:02:58;;;;;;;;;;;26.30;76.10;;;;;;4360265;32;43637;-82
2021/06/18 09:05:26;;;;;;;;;;;26.30;76.10;;;;;;4347318;32;41583;-81
2021/06/18 09:07:53;;;;;;;;;;;26.40;76.10;;;;;;4360076;32;27804;-81
2021/06/18 09:10:21;;;;;;;;;;;26.30;76.10;;;;;;4360511;32;20008;-81
2021/06/18 09:13:08;;;;;;;;;;;26.40;76.10;;;;;;4362107;32;20031;-81
2021/06/18 09:15:41;;;;;;;;;;;26.40;76.10;;;;;;4360815;32;20473;-81
2021/06/18 09:18:28;;;;;;;;;;;26.40;76.10;;;;;;4359886;32;20001;-81
2021/06/18 09:21:01;;;;;;;;;;;26.40;76.10;;;;;;4359587;32;40324;-81
2021/06/18 09:23:33;;;;;;;;;;;26.40;76.10;;;;;;4361642;32;20035;-81
2021/06/18 09:26:18;;;;;;;;;;;26.40;76.00;;;;;;4361824;32;20055;-81
2021/06/18 09:29:05;;;;;;;;;;;26.40;76.00;;;;;;4347923;32;20009;-81
2021/06/18 09:31:35;;;;;;;;;;;26.40;76.00;;;;;;4359208;32;44265;-81
2021/06/18 09:34:03;;;;;;;;;;;26.50;76.00;;;;;;4361064;32;20078;-81
2021/06/18 09:36:34;;;;;;;;;;;26.40;75.90;;;;;;4360501;32;20064;-82
2021/06/18 09:39:02;;;;;;;;;;;26.50;75.90;;;;;;4360118;32;20071;-82
2021/06/18 09:41:36;;;;;;;;;;;26.50;75.90;;;;;;4360439;32;20008;-82
2021/06/18 09:44:07;;;;;;;;;;;26.50;75.80;;;;;;4360199;32;20064;-83
2021/06/18 09:46:54;;;;;;;;;;;26.50;76.60;;;;;;4360724;32;20398;-83
2021/06/18 09:49:30;;;;;;;;;;;26.50;75.70;;;;;;4360034;32;20418;-84
2021/06/18 09:52:01;;;;;;;;;;;26.50;75.40;;;;;;4361421;32;20018;-84
2021/06/18 09:54:32;;;;;;;;;;;26.50;75.30;;;;;;4347609;33;20458;-83
2021/06/18 09:57:08;;;;;;;;;;;26.60;75.10;;;;;;4360033;33;20095;-84
2021/06/18 09:59:48;;;;;;;;;;;26.60;75.00;;;;;;4359326;33;20013;-83
2021/06/18 10:02:16;;;;;;;;;;;26.60;74.80;;;;;;4359836;33;20047;-83
2021/06/18 10:04:44;;;;;;;;;;;26.60;74.70;;;;;;4358733;33;43606;-83
2021/06/18 10:07:11;;;;;;;;;;;26.60;74.50;;;;;;4359823;32;41418;-83
2021/06/18 10:09:39;;;;;;;;;;;26.60;74.50;;;;;;4362888;32;35089;-83
2021/06/18 10:12:09;;;;;;;;;;;26.60;74.50;;;;;;4386695;32;41902;-83
2021/06/18 10:14:36;;;;;;;;;;;26.60;74.50;;;;;;4362283;32;32066;-85
2021/06/18 10:17:03;;;;;;;;;;;26.70;74.40;;;;;;4363287;32;38016;-83
2021/06/18 10:19:33;;;;;;;;;;;26.70;74.30;;;;;;4362753;32;44437;-84
2021/06/18 10:22:11;;;;;;;;;;;26.70;74.20;;;;;;4361570;32;44529;-85
2021/06/18 10:24:44;;;;;;;;;;;26.70;73.40;;;;;;4349509;32;42129;-83
2021/06/18 10:27:18;;;;;;;;;;;26.70;73.30;;;;;;4362155;32;44331;-86
2021/06/18 10:29:45;;;;;;;;;;;26.70;73.10;;;;;;4361967;32;41746;-84
2021/06/18 10:32:33;;;;;;;;;;;26.70;73.00;;;;;;4363329;32;32815;-85
2021/06/18 10:35:05;;;;;;;;;;;26.70;72.60;;;;;;4349354;32;44207;-83
2021/06/18 10:37:33;;;;;;;;;;;26.70;72.20;;;;;;4350604;32;20398;-86
2021/06/18 10:40:11;;;;;;;;;;;26.80;72.10;;;;;;4362731;32;32047;-86
2021/06/18 10:42:57;;;;;;;;;;;26.80;72.20;;;;;;4362379;32;22763;-84
2021/06/18 10:45:50;;;;;;;;;;;26.80;72.00;;;;;;4363590;32;20004;-85
2021/06/18 10:48:40;;;;;;;;;;;26.80;71.50;;;;;;4362535;32;20032;-84
2021/06/18 10:51:26;;;;;;;;;;;26.90;71.50;;;;;;4350256;32;20002;-88
2021/06/18 10:54:06;;;;;;;;;;;26.90;70.50;;;;;;4362424;32;20094;-83
2021/06/18 10:56:48;;;;;;;;;;;27.00;70.20;;;;;;4362185;32;20079;-82
2021/06/18 10:59:20;;;;;;;;;;;27.00;69.90;;;;;;4363419;32;20345;-81
2021/06/18 11:01:50;;;;;;;;;;;27.10;69.50;;;;;;4362435;32;20061;-83
2021/06/18 11:04:34;;;;;;;;;;;27.10;70.10;;;;;;4349403;32;20266;-81
2021/06/18 11:07:25;;;;;;;;;;;27.20;69.10;;;;;;4363714;32;20428;-82
2021/06/18 11:09:53;;;;;;;;;;;27.20;68.80;;;;;;4362075;32;20035;-81
2021/06/18 11:12:27;;;;;;;;;;;27.30;68.80;;;;;;4361850;32;20005;-80
2021/06/18 11:14:57;;;;;;;;;;;27.30;69.10;;;;;;4349969;32;19998;-82
2021/06/18 11:17:44;;;;;;;;;;;27.40;68.60;;;;;;4387272;32;20001;-81
2021/06/18 11:20:19;;;;;;;;;;;27.40;68.80;;;;;;4349188;32;22968;-80
2021/06/18 11:25:32;;;;;;;;;;;27.40;68.50;;;;;;4363381;32;20005;-82
2021/06/18 11:28:29;;;;;;;;;;;27.50;68.20;;;;;;4362090;32;20009;-83
2021/06/18 11:30:56;;;;;;;;;;;27.50;68.20;;;;;;4362394;32;40996;-80
2021/06/18 11:33:38;;;;;;;;;;;27.50;67.20;;;;;;4362852;32;20064;-80
2021/06/18 11:36:09;;;;;;;;;;;27.60;66.70;;;;;;4360428;32;44579;-81
2021/06/18 11:38:36;;;;;;;;;;;27.60;67.30;;;;;;4363197;32;20028;-84
2021/06/18 11:41:05;;;;;;;;;;;27.70;67.20;;;;;;4363141;32;20076;-80
2021/06/18 11:43:45;;;;;;;;;;;27.70;66.30;;;;;;4361929;32;20020;-81
2021/06/18 11:46:12;;;;;;;;;;;27.70;66.20;;;;;;4363007;32;20001;-80
2021/06/18 11:48:45;;;;;;;;;;;27.80;66.20;;;;;;4361776;32;20027;-80
2021/06/18 11:51:22;;;;;;;;;;;27.80;66.10;;;;;;4349386;32;19997;-81
2021/06/18 11:53:50;;;;;;;;;;;27.90;65.60;;;;;;4360910;32;21246;-82
2021/06/18 11:56:20;;;;;;;;;;;27.90;64.90;;;;;;4360884;32;22600;-81
2021/06/18 11:58:47;;;;;;;;;;;27.90;64.30;;;;;;4362834;32;20009;-79
2021/06/18 12:01:16;;;;;;;;;;;28.00;65.00;;;;;;4361255;32;20017;-80
2021/06/18 12:03:47;;;;;;;;;;;28.00;64.10;;;;;;4362303;32;20005;-81
2021/06/18 12:06:20;;;;;;;;;;;28.10;64.00;;;;;;4361074;32;20421;-81
2021/06/18 12:09:04;;;;;;;;;;;28.10;64.20;;;;;;4386225;32;19997;-82
2021/06/18 12:11:33;;;;;;;;;;;28.20;64.10;;;;;;4362458;32;20385;-80
2021/06/18 12:14:07;;;;;;;;;;;28.20;63.80;;;;;;4361579;32;20042;-81
2021/06/18 12:16:35;;;;;;;;;;;28.20;64.30;;;;;;4361611;32;20005;-80
2021/06/18 12:19:21;;;;;;;;;;;28.40;63.70;;;;;;4362472;32;20001;-82
2021/06/18 12:22:01;;;;;;;;;;;28.40;63.50;;;;;;4362599;32;20019;-80
2021/06/18 12:24:33;;;;;;;;;;;28.40;63.70;;;;;;4362091;32;20016;-81
2021/06/18 12:27:05;;;;;;;;;;;28.50;63.80;;;;;;4361477;32;20009;-81
2021/06/18 12:29:45;;;;;;;;;;;28.50;63.90;;;;;;4360869;32;24974;-80
2021/06/18 12:32:13;;;;;;;;;;;28.50;63.30;;;;;;4360555;32;20004;-81
2021/06/18 12:34:50;;;;;;;;;;;28.50;63.00;;;;;;4361070;32;20009;-80
2021/06/18 12:37:25;;;;;;;;;;;28.50;62.70;;;;;;4361053;32;20017;-81
2021/06/18 12:40:07;;;;;;;;;;;28.50;63.40;;;;;;4361863;32;21044;-81
2021/06/18 12:42:40;;;;;;;;;;;28.50;63.10;;;;;;4361043;32;20076;-83
2021/06/18 12:45:11;;;;;;;;;;;28.60;63.20;;;;;;4361019;32;20017;-82
2021/06/18 12:47:40;;;;;;;;;;;28.70;62.80;;;;;;4360752;32;20001;-81
2021/06/18 12:50:27;;;;;;;;;;;28.70;63.30;;;;;;4361025;32;20075;-82
2021/06/18 12:53:00;;;;;;;;;;;28.70;62.70;;;;;;4361237;32;20020;-83
2021/06/18 12:55:32;;;;;;;;;;;28.70;61.60;;;;;;4373423;32;20048;-83
2021/06/18 12:58:05;;;;;;;;;;;28.70;60.90;;;;;;4362092;32;20390;-82
2021/06/18 13:00:44;;;;;;;;;;;28.70;61.40;;;;;;4362120;32;20464;-83
2021/06/18 13:03:32;;;;;;;;;;;28.80;61.20;;;;;;4370154;32;20110;-79
2021/06/18 13:06:06;;;;;;;;;;;28.80;61.20;;;;;;4359956;32;25904;-80
2021/06/18 13:09:03;;;;;;;;;;;28.80;61.50;;;;;;4360621;32;20005;-80
2021/06/18 13:11:32;;;;;;;;;;;28.90;59.60;;;;;;4346254;32;37356;-79
2021/06/18 13:14:07;;;;;;;;;;;28.90;60.10;;;;;;4360809;32;25589;-85
2021/06/18 13:16:37;;;;;;;;;;;28.90;59.60;;;;;;4361532;32;20512;-82
2021/06/18 13:19:05;;;;;;;;;;;28.90;57.80;;;;;;4361713;32;20039;-83
2021/06/18 13:21:52;;;;;;;;;;;29.00;58.20;;;;;;4348060;32;20014;-81
2021/06/18 13:24:20;;;;;;;;;;;29.00;58.40;;;;;;4360425;32;42239;-82
2021/06/18 13:26:48;;;;;;;;;;;29.10;57.60;;;;;;4360788;32;31094;-79
2021/06/18 13:29:16;;;;;;;;;;;29.10;57.70;;;;;;4347077;32;38767;-84
2021/06/18 13:31:51;;;;;;;;;;;29.20;58.20;;;;;;4360513;32;20108;-82
2021/06/18 13:34:18;;;;;;;;;;;29.10;58.40;;;;;;4384500;32;43823;-80
2021/06/18 13:36:46;;;;;;;;;;;29.20;58.30;;;;;;4359012;32;43661;-84
2021/06/18 13:39:22;;;;;;;;;;;29.20;57.30;;;;;;4348280;32;19993;-83
2021/06/18 13:41:53;;;;;;;;;;;29.10;57.40;;;;;;4359039;32;45276;-81
2021/06/18 13:44:20;;;;;;;;;;;29.10;57.70;;;;;;4359160;32;42877;-80
2021/06/18 13:46:47;;;;;;;;;;;29.10;57.80;;;;;;4360348;32;42773;-81
2021/06/18 13:49:17;;;;;;;;;;;29.10;57.40;;;;;;4361366;32;20017;-82
2021/06/18 13:51:47;;;;;;;;;;;29.10;57.50;;;;;;4360294;32;20111;-81
2021/06/18 13:54:15;;;;;;;;;;;29.10;56.90;;;;;;4359148;32;40037;-79
2021/06/18 13:56:42;;;;;;;;;;;29.20;56.70;;;;;;4358838;32;39791;-80
2021/06/18 13:59:09;;;;;;;;;;;29.20;56.60;;;;;;4361097;33;20361;-83
2021/06/18 14:01:37;;;;;;;;;;;29.20;56.90;;;;;;4358481;33;41772;-79
2021/06/18 14:04:06;;;;;;;;;;;29.30;56.80;;;;;;4358904;33;46015;-79
2021/06/18 14:06:34;;;;;;;;;;;29.30;56.20;;;;;;4359308;33;44317;-83
2021/06/18 14:09:04;;;;;;;;;;;29.30;57.20;;;;;;4359324;33;32756;-80
2021/06/18 14:11:33;;;;;;;;;;;29.40;56.50;;;;;;4348021;33;20015;-81
2021/06/18 14:14:02;;;;;;;;;;;29.30;56.00;;;;;;4359445;33;20430;-82
2021/06/18 14:16:42;;;;;;;;;;;29.40;54.70;;;;;;4360910;32;20004;-82
2021/06/18 14:19:12;;;;;;;;;;;29.40;54.90;;;;;;4359144;33;22257;-81
2021/06/18 14:21:40;;;;;;;;;;;29.40;55.40;;;;;;4360211;32;43373;-84
2021/06/18 14:24:07;;;;;;;;;;;29.50;54.70;;;;;;4347824;33;20056;-80
2021/06/18 14:26:35;;;;;;;;;;;29.50;54.20;;;;;;4360908;32;20524;-81
2021/06/18 14:29:05;;;;;;;;;;;29.50;53.70;;;;;;4359716;33;20062;-81
2021/06/18 14:31:35;;;;;;;;;;;29.50;54.30;;;;;;4361332;32;20064;-81
2021/06/18 14:34:05;;;;;;;;;;;29.50;53.40;;;;;;4359916;33;44067;-82
2021/06/18 14:36:33;;;;;;;;;;;29.50;53.50;;;;;;4346263;33;40145;-81
2021/06/18 14:39:00;;;;;;;;;;;29.60;54.00;;;;;;4358494;33;41390;-81
2021/06/18 14:41:30;;;;;;;;;;;29.60;53.40;;;;;;4359921;33;20064;-79
2021/06/18 14:43:57;;;;;;;;;;;29.50;53.40;;;;;;4358914;33;33665;-80
2021/06/18 14:46:28;;;;;;;;;;;29.60;54.00;;;;;;4358763;33;38702;-79